Главная страница
METAR-TAF:

METAR-TAF

Аэропорты :

Уральск, Казахстан

широта: 51-15N, долгота: 051-17E, высота над уровнем моря: 36 м

Текущие метеонаблюдения

Эта сводка был подготовлена 21 минут назад, в 02:00 UTC
Ветер 4 Узел от южный-юго-западный
Температура 7°C
Влажность 57%
Давление 1024 hPa
Видимость 10 км и более
Сплошная облачность на высоте 2500 фута

METAR: UARR 160200Z 21002MPS 9999 OVC025 07/M01 Q1024 R22/CLRD70 NOSIG RMK QFE764/1019

Время: 07:21 (02:21 UTC)

Прогноз

Эта сводка был подготовлена 3 часа и 21 минут назад, в 23:00 UTC
Прогноз действительный с 16-го 00 UTC до 16-го 09 UTC
Ветер 4 Узел переменных направлений
Видимость 10 км и более
Рассеянная облачность на высоте 2000 фута
временами
С 16-го 00 UTC до 16-го 04 UTC
Видимость: 2000 м
Рассеянная облачность на высоте 700 фута
небольшой дождь, дымка
изменения
С 16-го 06 UTC до 16-го 08 UTC
Ветер 10 Узел от западный

TAF: UARR 152300Z 1600/1609 VRB02MPS 9999 BKN020 TEMPO 1600/1604 2000 -RA BR BKN007 BECMG 1606/1608 27005MPS

Метеонаблюдения и прогнозы для более 4000 аэропортов (сводки METAR и TAF).

Имеющиеся станции представлены на карте желтыми и красными точками.

Чтобы увидеть название станции, наведите на нее мышь.

Затем щелкните, чтобы увидеть метеонаблюдения и метеопрогнозы.

Управление картой: чтобы увеличить масштаб, щелкните зеленые кнопки с черным крестиком; чтобы уменьшить масштаб, щелкните зеленую кнопку с тире; для просмотра соседних карт щелкайте зеленые стрелки.


METAR-TAF: